^^
Saratoga-Weather Station Historical Data
Daily Summary for September 1, 2020 Units:  Both    English   Metric
Daily Weekly Monthly Yearly Custom
  High: Low: Average:
Temperature: 55 °F /  12.8 °C 46.6 °F /  8.1 °C 49.6 °F /  9.8 °C
Dew Point: 49.8 °F /  9.9 °C 44.1 °F /  6.7 °C 46.6 °F /  8.1 °C
Humidity: 94% 78% 89%
Wind Speed: 14.1mph /  22.7km/h - 2.3mph /  3.7km/h
Wind Gust: 15mph /  24.1km/h - -
Wind- - SSW
Pressure: 29.6 in /  1003.4 hPa 29.6 in /  1002.0 hPa -
Precipitation: 0.31 in /  7.9 mm    
Historical Graphs
 
 
Tabular Data for September 1, 2020
Time Temperature Dew Point Pressure Wind Wind Speed Wind Gust Humidity Rainfall Rate (Hourly) solar
00:01 49.3 °F /  9.6 °C 45 °F /  7.2 °C 29.6in /  1003.0hPa ESE 2.9mph /  4.7km/h 3mph /  4.8km/h 85% 0in /  0.0mm 0 W/m2
00:06 48.9 °F /  9.4 °C 44.6 °F /  7 °C 29.6in /  1003.0hPa West 2.9mph /  4.7km/h 3mph /  4.8km/h 85% 0in /  0.0mm 0 W/m2
00:11 48.7 °F /  9.3 °C 44.8 °F /  7.1 °C 29.6in /  1003.4hPa NNE 4mph /  6.4km/h 4mph /  6.4km/h 86% 0in /  0.0mm 0 W/m2
00:17 48.6 °F /  9.2 °C 44.6 °F /  7 °C 29.6in /  1003.4hPa NNW 2.9mph /  4.7km/h 8mph /  12.9km/h 86% 0in /  0.0mm 0 W/m2
00:22 48.6 °F /  9.2 °C 44.8 °F /  7.1 °C 29.6in /  1003.4hPa East 2mph /  3.2km/h 3mph /  4.8km/h 87% 0in /  0.0mm 0 W/m2
00:27 48.6 °F /  9.2 °C 44.8 °F /  7.1 °C 29.6in /  1003.4hPa NW 0.9mph /  1.4km/h 3mph /  4.8km/h 87% 0in /  0.0mm 0 W/m2
00:32 48.6 °F /  9.2 °C 44.8 °F /  7.1 °C 29.6in /  1003.4hPa SE 2mph /  3.2km/h 6mph /  9.7km/h 87% 0in /  0.0mm 0 W/m2
00:37 48.6 °F /  9.2 °C 45.1 °F /  7.3 °C 29.6in /  1003.4hPa North 2mph /  3.2km/h 4mph /  6.4km/h 88% 0in /  0.0mm 0 W/m2
00:42 48.4 °F /  9.1 °C 45 °F /  7.2 °C 29.6in /  1003.4hPa East 4mph /  6.4km/h 6mph /  9.7km/h 88% 0in /  0.0mm 0 W/m2
00:47 48.4 °F /  9.1 °C 45 °F /  7.2 °C 29.6in /  1003.4hPa Calm   3mph /  4.8km/h 88% 0in /  0.0mm 0 W/m2
00:52 48.4 °F /  9.1 °C 45 °F /  7.2 °C 29.6in /  1003.4hPa ESE 4mph /  6.4km/h 4mph /  6.4km/h 88% 0in /  0.0mm 0 W/m2
00:57 48.2 °F /  9 °C 44.8 °F /  7.1 °C 29.6in /  1003.4hPa West 0.9mph /  1.4km/h 5mph /  8km/h 88% 0in /  0.0mm 0 W/m2
01:02 48.2 °F /  9 °C 44.8 °F /  7.1 °C 29.6in /  1003.4hPa West 0.9mph /  1.4km/h 3mph /  4.8km/h 88% 0in /  0.0mm 0 W/m2
01:07 48.2 °F /  9 °C 44.8 °F /  7.1 °C 29.6in /  1003.4hPa NE 4.9mph /  7.9km/h 5mph /  8km/h 88% 0in /  0.0mm 0 W/m2
01:12 48.2 °F /  9 °C 45.1 °F /  7.3 °C 29.6in /  1003.4hPa WNW 2mph /  3.2km/h 5mph /  8km/h 89% 0in /  0.0mm 0 W/m2
01:17 48.2 °F /  9 °C 45.1 °F /  7.3 °C 29.6in /  1003.0hPa WNW 0.9mph /  1.4km/h 3mph /  4.8km/h 89% 0in /  0.0mm 0 W/m2
01:22 48.2 °F /  9 °C 45.1 °F /  7.3 °C 29.6in /  1003.0hPa Calm   1mph /  1.6km/h 89% 0in /  0.0mm 0 W/m2
01:27 48.2 °F /  9 °C 45.1 °F /  7.3 °C 29.6in /  1003.0hPa ENE 2mph /  3.2km/h 3mph /  4.8km/h 89% 0in /  0.0mm 0 W/m2
01:32 48 °F /  8.9 °C 45 °F /  7.2 °C 29.6in /  1003.0hPa NE 2.9mph /  4.7km/h 4mph /  6.4km/h 89% 0in /  0.0mm 0 W/m2
01:37 48 °F /  8.9 °C 45 °F /  7.2 °C 29.6in /  1003.0hPa West 2mph /  3.2km/h 3mph /  4.8km/h 89% 0in /  0.0mm 0 W/m2
01:42 48 °F /  8.9 °C 45 °F /  7.2 °C 29.6in /  1003.0hPa NNE 0.9mph /  1.4km/h 4mph /  6.4km/h 89% 0in /  0.0mm 0 W/m2
01:47 47.8 °F /  8.8 °C 44.8 °F /  7.1 °C 29.6in /  1003.0hPa NNW 0.9mph /  1.4km/h 2mph /  3.2km/h 89% 0in /  0.0mm 0 W/m2
01:52 47.8 °F /  8.8 °C 44.8 °F /  7.1 °C 29.6in /  1003.4hPa WNW 4mph /  6.4km/h 4mph /  6.4km/h 89% 0in /  0.0mm 0 W/m2
01:57 47.8 °F /  8.8 °C 44.8 °F /  7.1 °C 29.6in /  1003.4hPa NW 2mph /  3.2km/h 3mph /  4.8km/h 89% 0in /  0.0mm 0 W/m2
02:02 47.8 °F /  8.8 °C 44.8 °F /  7.1 °C 29.6in /  1003.0hPa ENE 0.9mph /  1.4km/h 2mph /  3.2km/h 89% 0in /  0.0mm 0 W/m2
02:07 47.8 °F /  8.8 °C 44.8 °F /  7.1 °C 29.6in /  1003.0hPa NNE 0.9mph /  1.4km/h 1mph /  1.6km/h 89% 0in /  0.0mm 0 W/m2
02:12 47.8 °F /  8.8 °C 45 °F /  7.2 °C 29.6in /  1003.0hPa NNW 0.9mph /  1.4km/h 1mph /  1.6km/h 90% 0in /  0.0mm 0 W/m2
02:17 47.8 °F /  8.8 °C 45 °F /  7.2 °C 29.6in /  1003.0hPa South 2mph /  3.2km/h 4mph /  6.4km/h 90% 0in /  0.0mm 0 W/m2
02:22 47.8 °F /  8.8 °C 45 °F /  7.2 °C 29.6in /  1003.0hPa NE 2.9mph /  4.7km/h 3mph /  4.8km/h 90% 0in /  0.0mm 0 W/m2
02:27 47.8 °F /  8.8 °C 45 °F /  7.2 °C 29.6in /  1003.0hPa WNW 0.9mph /  1.4km/h 3mph /  4.8km/h 90% 0in /  0.0mm 0 W/m2
02:32 47.8 °F /  8.8 °C 45 °F /  7.2 °C 29.6in /  1003.0hPa SE 0.9mph /  1.4km/h 2mph /  3.2km/h 90% 0in /  0.0mm 0 W/m2
02:37 47.8 °F /  8.8 °C 45 °F /  7.2 °C 29.6in /  1003.0hPa SSE 2mph /  3.2km/h 5mph /  8km/h 90% 0in /  0.0mm 0 W/m2
02:42 47.8 °F /  8.8 °C 45 °F /  7.2 °C 29.6in /  1003.0hPa Calm   2mph /  3.2km/h 90% 0in /  0.0mm 0 W/m2
02:47 47.7 °F /  8.7 °C 45 °F /  7.2 °C 29.6in /  1002.7hPa NNE 2mph /  3.2km/h 2mph /  3.2km/h 90% 0in /  0.0mm 0 W/m2
02:52 47.8 °F /  8.8 °C 45 °F /  7.2 °C 29.6in /  1003.0hPa NNE 0.9mph /  1.4km/h 5mph /  8km/h 90% 0in /  0.0mm 0 W/m2
02:57 47.8 °F /  8.8 °C 45.3 °F /  7.4 °C 29.6in /  1002.7hPa NE 0.9mph /  1.4km/h 3mph /  4.8km/h 91% 0in /  0.0mm 0 W/m2
03:02 48 °F /  8.9 °C 45.5 °F /  7.5 °C 29.6in /  1002.7hPa NE 2mph /  3.2km/h 5mph /  8km/h 91% 0.01in /  0.2mm 0 W/m2
03:07 48 °F /  8.9 °C 45.5 °F /  7.5 °C 29.6in /  1002.7hPa ENE 2.9mph /  4.7km/h 3mph /  4.8km/h 91% 0.01in /  0.2mm 0 W/m2
03:12 48.4 °F /  9.1 °C 45.9 °F /  7.7 °C 29.6in /  1002.7hPa NE 2mph /  3.2km/h 5mph /  8km/h 91% 0.01in /  0.2mm 0 W/m2
03:17 48.4 °F /  9.1 °C 45.9 °F /  7.7 °C 29.6in /  1002.7hPa NNW 2mph /  3.2km/h 4mph /  6.4km/h 91% 0.01in /  0.2mm 0 W/m2
03:22 48.6 °F /  9.2 °C 46 °F /  7.8 °C 29.6in /  1002.7hPa Calm   5mph /  8km/h 91% 0.01in /  0.2mm 0 W/m2
03:27 48.6 °F /  9.2 °C 46 °F /  7.8 °C 29.6in /  1002.7hPa WNW 2mph /  3.2km/h 2mph /  3.2km/h 91% 0.01in /  0.2mm 0 W/m2
03:32 48.7 °F /  9.3 °C 46.2 °F /  7.9 °C 29.6in /  1002.7hPa NW 2mph /  3.2km/h 7mph /  11.3km/h 91% 0.02in /  0.5mm 0 W/m2
03:37 48.7 °F /  9.3 °C 46.2 °F /  7.9 °C 29.6in /  1002.7hPa NNW 2mph /  3.2km/h 5mph /  8km/h 91% 0.02in /  0.5mm 0 W/m2
03:42 48.7 °F /  9.3 °C 46.2 °F /  7.9 °C 29.6in /  1002.7hPa North 2mph /  3.2km/h 8mph /  12.9km/h 91% 0.02in /  0.5mm 0 W/m2
03:47 48.7 °F /  9.3 °C 46.2 °F /  7.9 °C 29.6in /  1002.7hPa SSW 2mph /  3.2km/h 2mph /  3.2km/h 91% 0.03in /  0.8mm 0 W/m2
03:52 48.7 °F /  9.3 °C 46.2 °F /  7.9 °C 29.6in /  1002.7hPa Calm   2mph /  3.2km/h 91% 0.05in /  1.3mm 0 W/m2
03:57 48.7 °F /  9.3 °C 46.6 °F /  8.1 °C 29.6in /  1002.7hPa NNW 2mph /  3.2km/h 3mph /  4.8km/h 92% 0.06in /  1.5mm 0 W/m2
04:02 48.7 °F /  9.3 °C 46.6 °F /  8.1 °C 29.6in /  1002.7hPa NNW 2.9mph /  4.7km/h 5mph /  8km/h 92% 0.05in /  1.3mm 0 W/m2
04:07 48.7 °F /  9.3 °C 46.6 °F /  8.1 °C 29.6in /  1002.7hPa NNE 2mph /  3.2km/h 3mph /  4.8km/h 92% 0.05in /  1.3mm 0 W/m2
04:12 48.7 °F /  9.3 °C 46.6 °F /  8.1 °C 29.6in /  1002.7hPa WNW 0.9mph /  1.4km/h 7mph /  11.3km/h 92% 0.05in /  1.3mm 0 W/m2
04:17 48.7 °F /  9.3 °C 46.6 °F /  8.1 °C 29.6in /  1002.7hPa Calm   3mph /  4.8km/h 92% 0.05in /  1.3mm 0 W/m2
04:22 48.7 °F /  9.3 °C 46.2 °F /  7.9 °C 29.6in /  1002.7hPa NE 2.9mph /  4.7km/h 8mph /  12.9km/h 91% 0.05in /  1.3mm 0 W/m2
04:27 48.7 °F /  9.3 °C 46.2 °F /  7.9 °C 29.6in /  1003.0hPa North 2mph /  3.2km/h 4mph /  6.4km/h 91% 0.05in /  1.3mm 0 W/m2
04:32 48.7 °F /  9.3 °C 46.2 °F /  7.9 °C 29.6in /  1003.0hPa WNW 0.9mph /  1.4km/h 5mph /  8km/h 91% 0.04in /  1.0mm 0 W/m2
04:37 48.7 °F /  9.3 °C 46.2 °F /  7.9 °C 29.6in /  1003.0hPa NNW 2mph /  3.2km/h 3mph /  4.8km/h 91% 0.04in /  1.0mm 0 W/m2
04:43 48.7 °F /  9.3 °C 46.2 °F /  7.9 °C 29.6in /  1002.7hPa Calm   3mph /  4.8km/h 91% 0.03in /  0.8mm 0 W/m2
04:48 48.7 °F /  9.3 °C 46.2 °F /  7.9 °C 29.6in /  1002.7hPa WNW 2.9mph /  4.7km/h 9mph /  14.5km/h 91% 0.02in /  0.5mm 0 W/m2
04:53 48.7 °F /  9.3 °C 46.2 °F /  7.9 °C 29.6in /  1002.7hPa NW 2mph /  3.2km/h 5mph /  8km/h 91% 0.01in /  0.2mm 0 W/m2
04:58 48.7 °F /  9.3 °C 46.2 °F /  7.9 °C 29.6in /  1002.7hPa NNE 2.9mph /  4.7km/h 11mph /  17.7km/h 91% 0in /  0.0mm 0 W/m2
05:03 48.9 °F /  9.4 °C 46.4 °F /  8 °C 29.6in /  1002.7hPa SW 0.9mph /  1.4km/h 5mph /  8km/h 91% 0in /  0.0mm 0 W/m2
05:08 48.7 °F /  9.3 °C 46.2 °F /  7.9 °C 29.6in /  1002.7hPa NNE 2mph /  3.2km/h 11mph /  17.7km/h 91% 0in /  0.0mm 0 W/m2
05:13 48.7 °F /  9.3 °C 46.2 °F /  7.9 °C 29.6in /  1002.7hPa Calm   2mph /  3.2km/h 91% 0in /  0.0mm 0 W/m2
05:18 48.7 °F /  9.3 °C 46.2 °F /  7.9 °C 29.6in /  1002.7hPa WSW 2mph /  3.2km/h 2mph /  3.2km/h 91% 0in /  0.0mm 0 W/m2
05:23 48.7 °F /  9.3 °C 46.2 °F /  7.9 °C 29.6in /  1002.7hPa NNE 4mph /  6.4km/h 4mph /  6.4km/h 91% 0.01in /  0.2mm 0 W/m2
05:28 48.7 °F /  9.3 °C 46.2 °F /  7.9 °C 29.6in /  1002.7hPa NE 2mph /  3.2km/h 3mph /  4.8km/h 91% 0.01in /  0.2mm 0 W/m2
05:33 48.7 °F /  9.3 °C 46.2 °F /  7.9 °C 29.6in /  1002.4hPa NNW 0.9mph /  1.4km/h 2mph /  3.2km/h 91% 0.01in /  0.2mm 0 W/m2
05:38 48.6 °F /  9.2 °C 46 °F /  7.8 °C 29.6in /  1002.7hPa NNE 2mph /  3.2km/h 2mph /  3.2km/h 91% 0.01in /  0.2mm 0 W/m2
05:43 48.6 °F /  9.2 °C 46.4 °F /  8 °C 29.6in /  1002.4hPa SSW 2.9mph /  4.7km/h 3mph /  4.8km/h 92% 0.01in /  0.2mm 0 W/m2
05:48 48.6 °F /  9.2 °C 46.4 °F /  8 °C 29.6in /  1002.7hPa North 2mph /  3.2km/h 4mph /  6.4km/h 92% 0.01in /  0.2mm 0 W/m2
05:53 48.6 °F /  9.2 °C 46.4 °F /  8 °C 29.6in /  1002.7hPa ENE 0.9mph /  1.4km/h 1mph /  1.6km/h 92% 0.02in /  0.5mm 0 W/m2
05:58 48.6 °F /  9.2 °C 46.4 °F /  8 °C 29.6in /  1002.7hPa Calm   4mph /  6.4km/h 92% 0.02in /  0.5mm 0 W/m2
06:03 48.6 °F /  9.2 °C 46.4 °F /  8 °C 29.6in /  1002.7hPa NW 0.9mph /  1.4km/h 4mph /  6.4km/h 92% 0.02in /  0.5mm 0 W/m2
06:08 48.6 °F /  9.2 °C 46.4 °F /  8 °C 29.6in /  1002.4hPa North 0.9mph /  1.4km/h 2mph /  3.2km/h 92% 0.02in /  0.5mm 0 W/m2
06:13 48.4 °F /  9.1 °C 46.2 °F /  7.9 °C 29.6in /  1002.4hPa NNE 2mph /  3.2km/h 2mph /  3.2km/h 92% 0.02in /  0.5mm 0 W/m2
06:18 48.4 °F /  9.1 °C 46.2 °F /  7.9 °C 29.6in /  1002.4hPa NE 2.9mph /  4.7km/h 3mph /  4.8km/h 92% 0.02in /  0.5mm 0 W/m2
06:23 48.4 °F /  9.1 °C 46.2 °F /  7.9 °C 29.6in /  1002.4hPa East 0.9mph /  1.4km/h 2mph /  3.2km/h 92% 0.02in /  0.5mm 0 W/m2
06:28 48.4 °F /  9.1 °C 46.2 °F /  7.9 °C 29.6in /  1002.7hPa NW 0.9mph /  1.4km/h 2mph /  3.2km/h 92% 0.02in /  0.5mm 0 W/m2
06:33 48.4 °F /  9.1 °C 46.2 °F /  7.9 °C 29.6in /  1002.7hPa WSW 4mph /  6.4km/h 13mph /  20.9km/h 92% 0.04in /  1.0mm 0 W/m2
06:38 48.4 °F /  9.1 °C 46.2 °F /  7.9 °C 29.6in /  1002.7hPa NW 0.9mph /  1.4km/h 2mph /  3.2km/h 92% 0.04in /  1.0mm 5 W/m2
06:43 48.4 °F /  9.1 °C 46.2 °F /  7.9 °C 29.6in /  1002.7hPa NW 0.9mph /  1.4km/h 7mph /  11.3km/h 92% 0.04in /  1.0mm 0 W/m2
06:48 48.4 °F /  9.1 °C 46.2 °F /  7.9 °C 29.6in /  1002.7hPa SE 0.9mph /  1.4km/h 3mph /  4.8km/h 92% 0.05in /  1.3mm 5 W/m2
06:53 48.2 °F /  9 °C 46 °F /  7.8 °C 29.6in /  1002.7hPa WNW 0.9mph /  1.4km/h 4mph /  6.4km/h 92% 0.05in /  1.3mm 5 W/m2
06:58 48.2 °F /  9 °C 46 °F /  7.8 °C 29.6in /  1002.4hPa NW 0.9mph /  1.4km/h 2mph /  3.2km/h 92% 0.06in /  1.5mm 5 W/m2
07:03 48 °F /  8.9 °C 45.9 °F /  7.7 °C 29.6in /  1002.4hPa Calm   2mph /  3.2km/h 92% 0.07in /  1.8mm 7 W/m2
07:08 48 °F /  8.9 °C 46 °F /  7.8 °C 29.6in /  1002.4hPa Calm   1mph /  1.6km/h 93% 0.08in /  2.0mm 5 W/m2
07:13 48 °F /  8.9 °C 46 °F /  7.8 °C 29.6in /  1002.4hPa NNE 0.9mph /  1.4km/h 1mph /  1.6km/h 93% 0.08in /  2.0mm 9 W/m2
07:18 47.8 °F /  8.8 °C 45.9 °F /  7.7 °C 29.6in /  1002.7hPa Calm   2mph /  3.2km/h 93% 0.07in /  1.8mm 21 W/m2
07:23 47.8 °F /  8.8 °C 45.9 °F /  7.7 °C 29.6in /  1002.7hPa NNE 0.9mph /  1.4km/h 5mph /  8km/h 93% 0.07in /  1.8mm 12 W/m2
07:28 47.8 °F /  8.8 °C 45.9 °F /  7.7 °C 29.6in /  1002.7hPa North 2mph /  3.2km/h 2mph /  3.2km/h 93% 0.07in /  1.8mm 28 W/m2
07:33 48 °F /  8.9 °C 46 °F /  7.8 °C 29.6in /  1002.7hPa NNE 0.9mph /  1.4km/h 2mph /  3.2km/h 93% 0.06in /  1.5mm 19 W/m2
07:38 48 °F /  8.9 °C 46 °F /  7.8 °C 29.6in /  1002.7hPa Calm   1mph /  1.6km/h 93% 0.06in /  1.5mm 21 W/m2
07:43 48.2 °F /  9 °C 46.6 °F /  8.1 °C 29.6in /  1003.0hPa WNW 2mph /  3.2km/h 5mph /  8km/h 94% 0.06in /  1.5mm 32 W/m2
07:48 48.2 °F /  9 °C 46.2 °F /  7.9 °C 29.6in /  1003.0hPa WNW 0.9mph /  1.4km/h 6mph /  9.7km/h 93% 0.05in /  1.3mm 12 W/m2
07:53 47.5 °F /  8.6 °C 45.3 °F /  7.4 °C 29.6in /  1003.0hPa WNW 8.1mph /  13km/h 8mph /  12.9km/h 92% 0.05in /  1.3mm 7 W/m2
07:58 46.9 °F /  8.3 °C 44.4 °F /  6.9 °C 29.6in /  1003.0hPa West 0.9mph /  1.4km/h 7mph /  11.3km/h 91% 0.03in /  0.8mm 12 W/m2
08:03 46.6 °F /  8.1 °C 44.1 °F /  6.7 °C 29.6in /  1003.0hPa West 4mph /  6.4km/h 8mph /  12.9km/h 91% 0.02in /  0.5mm 21 W/m2
08:08 46.6 °F /  8.1 °C 44.4 °F /  6.9 °C 29.6in /  1003.0hPa WNW 2mph /  3.2km/h 2mph /  3.2km/h 92% 0.02in /  0.5mm 32 W/m2
08:13 46.6 °F /  8.1 °C 44.4 °F /  6.9 °C 29.6in /  1003.0hPa Calm   3mph /  4.8km/h 92% 0.02in /  0.5mm 67 W/m2
08:18 46.8 °F /  8.2 °C 44.8 °F /  7.1 °C 29.6in /  1003.0hPa WNW 2mph /  3.2km/h 3mph /  4.8km/h 93% 0.02in /  0.5mm 118 W/m2
08:24 46.9 °F /  8.3 °C 45 °F /  7.2 °C 29.6in /  1003.0hPa Calm   2mph /  3.2km/h 93% 0.02in /  0.5mm 174 W/m2
08:29 47.5 °F /  8.6 °C 45.5 °F /  7.5 °C 29.6in /  1003.0hPa Calm   2mph /  3.2km/h 93% 0.01in /  0.2mm 63 W/m2
08:34 47.7 °F /  8.7 °C 46 °F /  7.8 °C 29.6in /  1003.0hPa NW 0.9mph /  1.4km/h 1mph /  1.6km/h 94% 0.01in /  0.2mm 179 W/m2
08:39 48 °F /  8.9 °C 46.4 °F /  8 °C 29.6in /  1003.0hPa NW 0.9mph /  1.4km/h 2mph /  3.2km/h 94% 0.01in /  0.2mm 132 W/m2
08:44 48.4 °F /  9.1 °C 46.4 °F /  8 °C 29.6in /  1003.0hPa Calm   2mph /  3.2km/h 93% 0.01in /  0.2mm 84 W/m2
08:49 48.6 °F /  9.2 °C 46.9 °F /  8.3 °C 29.6in /  1003.0hPa East 0.9mph /  1.4km/h 4mph /  6.4km/h 94% 0.01in /  0.2mm 137 W/m2
08:54 48.7 °F /  9.3 °C 47.1 °F /  8.4 °C 29.6in /  1003.0hPa WNW 2mph /  3.2km/h 4mph /  6.4km/h 94% 0in /  0.0mm 158 W/m2
08:59 49.3 °F /  9.6 °C 47.7 °F /  8.7 °C 29.6in /  1002.7hPa NW 2mph /  3.2km/h 3mph /  4.8km/h 94% 0in /  0.0mm 156 W/m2
09:04 49.5 °F /  9.7 °C 47.5 °F /  8.6 °C 29.6in /  1002.7hPa NNE 2.9mph /  4.7km/h 4mph /  6.4km/h 93% 0in /  0.0mm 146 W/m2
09:09 49.6 °F /  9.8 °C 47.7 °F /  8.7 °C 29.6in /  1002.7hPa Calm   3mph /  4.8km/h 93% 0in /  0.0mm 142 W/m2
09:14 49.8 °F /  9.9 °C 47.8 °F /  8.8 °C 29.6in /  1002.7hPa NNE 0.9mph /  1.4km/h 8mph /  12.9km/h 93% 0in /  0.0mm 90 W/m2
09:19 50 °F /  10 °C 47.8 °F /  8.8 °C 29.6in /  1002.7hPa North 2mph /  3.2km/h 4mph /  6.4km/h 92% 0.02in /  0.5mm 111 W/m2
09:24 50.2 °F /  10.1 °C 48.2 °F /  9 °C 29.6in /  1002.7hPa East 0.9mph /  1.4km/h 2mph /  3.2km/h 93% 0.02in /  0.5mm 130 W/m2
09:29 50.2 °F /  10.1 °C 48 °F /  8.9 °C 29.6in /  1002.7hPa NNE 0.9mph /  1.4km/h 2mph /  3.2km/h 92% 0.02in /  0.5mm 42 W/m2
09:34 49.8 °F /  9.9 °C 47.7 °F /  8.7 °C 29.6in /  1002.7hPa East 0.9mph /  1.4km/h 11mph /  17.7km/h 92% 0.02in /  0.5mm 47 W/m2
09:39 49.8 °F /  9.9 °C 47.7 °F /  8.7 °C 29.6in /  1002.7hPa West 2mph /  3.2km/h 3mph /  4.8km/h 92% 0.04in /  1.0mm 93 W/m2
09:44 49.6 °F /  9.8 °C 47.5 °F /  8.6 °C 29.6in /  1002.4hPa SSW 0.9mph /  1.4km/h 11mph /  17.7km/h 92% 0.05in /  1.3mm 132 W/m2
09:49 49.8 °F /  9.9 °C 47.7 °F /  8.7 °C 29.6in /  1002.4hPa ESE 2.9mph /  4.7km/h 3mph /  4.8km/h 92% 0.05in /  1.3mm 225 W/m2
09:54 50 °F /  10 °C 48 °F /  8.9 °C 29.6in /  1002.4hPa ESE 4.9mph /  7.9km/h 5mph /  8km/h 93% 0.05in /  1.3mm 95 W/m2
09:59 50 °F /  10 °C 47.8 °F /  8.8 °C 29.6in /  1002.4hPa Calm   2mph /  3.2km/h 92% 0.05in /  1.3mm 63 W/m2
10:09 49.8 °F /  9.9 °C 47.7 °F /  8.7 °C 29.6in /  1002.0hPa NNW 0.9mph /  1.4km/h 3mph /  4.8km/h 92% 0.06in /  1.5mm 72 W/m2
10:14 49.6 °F /  9.8 °C 47.7 °F /  8.7 °C 29.6in /  1002.0hPa NW 2.9mph /  4.7km/h 5mph /  8km/h 93% 0.06in /  1.5mm 54 W/m2
10:19 49.6 °F /  9.8 °C 47.7 °F /  8.7 °C 29.6in /  1002.4hPa NNW 0.9mph /  1.4km/h 3mph /  4.8km/h 93% 0.05in /  1.3mm 33 W/m2
10:24 49.6 °F /  9.8 °C 47.7 °F /  8.7 °C 29.6in /  1002.7hPa NW 4mph /  6.4km/h 9mph /  14.5km/h 93% 0.06in /  1.5mm 14 W/m2
10:29 49.6 °F /  9.8 °C 47.7 °F /  8.7 °C 29.6in /  1003.0hPa WSW 4.9mph /  7.9km/h 12mph /  19.3km/h 93% 0.09in /  2.3mm 19 W/m2
10:34 48.6 °F /  9.2 °C 46 °F /  7.8 °C 29.6in /  1002.7hPa WSW 2.9mph /  4.7km/h 9mph /  14.5km/h 91% 0.11in /  2.8mm 46 W/m2
10:39 48 °F /  8.9 °C 45.9 °F /  7.7 °C 29.6in /  1002.7hPa WSW 2mph /  3.2km/h 4mph /  6.4km/h 92% 0.09in /  2.3mm 63 W/m2
10:44 48 °F /  8.9 °C 45.9 °F /  7.7 °C 29.6in /  1002.7hPa North 2.9mph /  4.7km/h 3mph /  4.8km/h 92% 0.09in /  2.3mm 77 W/m2
10:49 48.2 °F /  9 °C 46.2 °F /  7.9 °C 29.6in /  1002.7hPa WSW 2.9mph /  4.7km/h 4mph /  6.4km/h 93% 0.1in /  2.5mm 144 W/m2
10:54 48.4 °F /  9.1 °C 46.4 °F /  8 °C 29.6in /  1002.4hPa WNW 2.9mph /  4.7km/h 8mph /  12.9km/h 93% 0.1in /  2.5mm 227 W/m2
10:59 48.6 °F /  9.2 °C 46.6 °F /  8.1 °C 29.6in /  1002.7hPa WNW 2.9mph /  4.7km/h 6mph /  9.7km/h 93% 0.1in /  2.5mm 167 W/m2
11:05 48.6 °F /  9.2 °C 46.6 °F /  8.1 °C 29.6in /  1002.7hPa WNW 6.9mph /  11.1km/h 8mph /  12.9km/h 93% 0.09in /  2.3mm 190 W/m2
11:10 48.7 °F /  9.3 °C 46.6 °F /  8.1 °C 29.6in /  1002.7hPa SW 4mph /  6.4km/h 8mph /  12.9km/h 92% 0.09in /  2.3mm 251 W/m2
11:15 48.9 °F /  9.4 °C 46.8 °F /  8.2 °C 29.6in /  1002.7hPa West 2.9mph /  4.7km/h 5mph /  8km/h 92% 0.09in /  2.3mm 253 W/m2
11:20 49.3 °F /  9.6 °C 47.1 °F /  8.4 °C 29.6in /  1002.7hPa WSW 2mph /  3.2km/h 3mph /  4.8km/h 92% 0.09in /  2.3mm 371 W/m2
11:25 49.6 °F /  9.8 °C 47.5 °F /  8.6 °C 29.6in /  1002.7hPa West 2.9mph /  4.7km/h 7mph /  11.3km/h 92% 0.07in /  1.8mm 334 W/m2
11:30 49.8 °F /  9.9 °C 47.3 °F /  8.5 °C 29.6in /  1002.7hPa WSW 4mph /  6.4km/h 7mph /  11.3km/h 91% 0.02in /  0.5mm 229 W/m2
11:35 49.6 °F /  9.8 °C 46.8 °F /  8.2 °C 29.6in /  1002.7hPa WNW 4.9mph /  7.9km/h 14mph /  22.5km/h 90% 0.01in /  0.2mm 241 W/m2
11:40 49.6 °F /  9.8 °C 46.6 °F /  8.1 °C 29.6in /  1002.7hPa SW 2mph /  3.2km/h 7mph /  11.3km/h 89% 0.01in /  0.2mm 264 W/m2
11:45 49.8 °F /  9.9 °C 46.8 °F /  8.2 °C 29.6in /  1002.7hPa NW 4mph /  6.4km/h 14mph /  22.5km/h 89% 0.01in /  0.2mm 227 W/m2
11:50 50 °F /  10 °C 46.9 °F /  8.3 °C 29.6in /  1002.4hPa SW 4.9mph /  7.9km/h 7mph /  11.3km/h 89% 0in /  0.0mm 719 W/m2
11:55 50.5 °F /  10.3 °C 47.5 °F /  8.6 °C 29.6in /  1002.7hPa WSW 4.9mph /  7.9km/h 9mph /  14.5km/h 89% 0in /  0.0mm 719 W/m2
12:00 51.4 °F /  10.8 °C 48.6 °F /  9.2 °C 29.6in /  1002.7hPa NW 2.9mph /  4.7km/h 8mph /  12.9km/h 90% 0in /  0.0mm 719 W/m2
12:05 52 °F /  11.1 °C 48.2 °F /  9 °C 29.6in /  1002.7hPa WNW 4mph /  6.4km/h 6mph /  9.7km/h 87% 0in /  0.0mm 438 W/m2
12:10 52.3 °F /  11.3 °C 48.6 °F /  9.2 °C 29.6in /  1002.7hPa NNW 4mph /  6.4km/h 9mph /  14.5km/h 87% 0in /  0.0mm 346 W/m2
12:15 52.5 °F /  11.4 °C 48.2 °F /  9 °C 29.6in /  1002.7hPa WNW 2mph /  3.2km/h 6mph /  9.7km/h 85% 0in /  0.0mm 299 W/m2
12:20 52.9 °F /  11.6 °C 48.7 °F /  9.3 °C 29.6in /  1002.7hPa SW 6mph /  9.7km/h 10mph /  16.1km/h 86% 0in /  0.0mm 350 W/m2
12:25 53.1 °F /  11.7 °C 48.4 °F /  9.1 °C 29.6in /  1002.7hPa WNW 2.9mph /  4.7km/h 6mph /  9.7km/h 84% 0in /  0.0mm 397 W/m2
12:30 53.1 °F /  11.7 °C 48 °F /  8.9 °C 29.6in /  1002.7hPa WNW 2mph /  3.2km/h 6mph /  9.7km/h 83% 0in /  0.0mm 332 W/m2
12:35 53.4 °F /  11.9 °C 48 °F /  8.9 °C 29.6in /  1002.7hPa NNW 0.9mph /  1.4km/h 4mph /  6.4km/h 82% 0in /  0.0mm 610 W/m2
12:41 53.6 °F /  12 °C 48.2 °F /  9 °C 29.6in /  1002.7hPa NW 4.9mph /  7.9km/h 7mph /  11.3km/h 82% 0in /  0.0mm 359 W/m2
12:49 53.8 °F /  12.1 °C 48.4 °F /  9.1 °C 29.6in /  1002.7hPa West 2.9mph /  4.7km/h 3mph /  4.8km/h 82% 0in /  0.0mm 471 W/m2
12:51 53.8 °F /  12.1 °C 48.4 °F /  9.1 °C 29.6in /  1002.7hPa NW 2mph /  3.2km/h 3mph /  4.8km/h 82% 0in /  0.0mm 366 W/m2
12:59 54 °F /  12.2 °C 48.6 °F /  9.2 °C 29.6in /  1002.4hPa NNW 4mph /  6.4km/h 11mph /  17.7km/h 82% 0in /  0.0mm 206 W/m2
13:01 54 °F /  12.2 °C 48.6 °F /  9.2 °C 29.6in /  1002.4hPa NW 2mph /  3.2km/h 3mph /  4.8km/h 82% 0in /  0.0mm 163 W/m2
13:13 53.8 °F /  12.1 °C 48.4 °F /  9.1 °C 29.6in /  1002.4hPa NNW 6mph /  9.7km/h 6mph /  9.7km/h 82% 0in /  0.0mm 272 W/m2
13:15 53.4 °F /  11.9 °C 48 °F /  8.9 °C 29.6in /  1002.4hPa ENE 2mph /  3.2km/h 4mph /  6.4km/h 82% 0in /  0.0mm 229 W/m2
13:20 53.4 °F /  11.9 °C 48.4 °F /  9.1 °C 29.6in /  1002.4hPa NNW 2mph /  3.2km/h 4mph /  6.4km/h 83% 0in /  0.0mm 306 W/m2
13:27 53.6 °F /  12 °C 48.6 °F /  9.2 °C 29.6in /  1002.4hPa NW 2mph /  3.2km/h 5mph /  8km/h 83% 0in /  0.0mm 362 W/m2
13:30 53.4 °F /  11.9 °C 47.7 °F /  8.7 °C 29.6in /  1002.4hPa NNE 2mph /  3.2km/h 3mph /  4.8km/h 81% 0in /  0.0mm 329 W/m2
13:35 53.4 °F /  11.9 °C 48.4 °F /  9.1 °C 29.6in /  1002.4hPa Calm   2mph /  3.2km/h 83% 0in /  0.0mm 362 W/m2
13:40 53.8 °F /  12.1 °C 48.4 °F /  9.1 °C 29.6in /  1002.4hPa NW 6mph /  9.7km/h 10mph /  16.1km/h 82% 0in /  0.0mm 485 W/m2
13:45 53.8 °F /  12.1 °C 48.4 °F /  9.1 °C 29.6in /  1002.4hPa NE 0.9mph /  1.4km/h 4mph /  6.4km/h 82% 0in /  0.0mm 434 W/m2
13:50 54 °F /  12.2 °C 48.2 °F /  9 °C 29.6in /  1002.4hPa SW 4.9mph /  7.9km/h 6mph /  9.7km/h 81% 0in /  0.0mm 506 W/m2
13:55 54.1 °F /  12.3 °C 48.7 °F /  9.3 °C 29.6in /  1002.4hPa NW 8.1mph /  13km/h 15mph /  24.1km/h 82% 0in /  0.0mm 417 W/m2
14:00 54.3 °F /  12.4 °C 48.6 °F /  9.2 °C 29.6in /  1002.4hPa SE 4mph /  6.4km/h 6mph /  9.7km/h 81% 0in /  0.0mm 408 W/m2
14:05 54.3 °F /  12.4 °C 48.6 °F /  9.2 °C 29.6in /  1002.4hPa NW 4.9mph /  7.9km/h 12mph /  19.3km/h 81% 0in /  0.0mm 677 W/m2
14:10 54.7 °F /  12.6 °C 48.9 °F /  9.4 °C 29.6in /  1002.4hPa WNW 6mph /  9.7km/h 13mph /  20.9km/h 81% 0in /  0.0mm 603 W/m2
14:16 55 °F /  12.8 °C 48.6 °F /  9.2 °C 29.6in /  1002.4hPa West 2.9mph /  4.7km/h 5mph /  8km/h 79% 0in /  0.0mm 536 W/m2
14:21 55 °F /  12.8 °C 48.4 °F /  9.1 °C 29.6in /  1002.4hPa NNW 0.9mph /  1.4km/h 15mph /  24.1km/h 78% 0in /  0.0mm 501 W/m2
14:26 55 °F /  12.8 °C 48.9 °F /  9.4 °C 29.6in /  1002.7hPa WNW 14.1mph /  22.7km/h 15mph /  24.1km/h 80% 0in /  0.0mm 200 W/m2
14:37 54 °F /  12.2 °C 48.2 °F /  9 °C 29.6in /  1002.4hPa WNW 0.9mph /  1.4km/h 4mph /  6.4km/h 81% 0in /  0.0mm 278 W/m2
14:42 54 °F /  12.2 °C 48.6 °F /  9.2 °C 29.6in /  1002.4hPa SSE 0.9mph /  1.4km/h 10mph /  16.1km/h 82% 0in /  0.0mm 703 W/m2
14:47 54.1 °F /  12.3 °C 49.5 °F /  9.7 °C 29.6in /  1002.4hPa WNW 6.9mph /  11.1km/h 7mph /  11.3km/h 84% 0in /  0.0mm 828 W/m2
14:52 54.3 °F /  12.4 °C 49.6 °F /  9.8 °C 29.6in /  1002.4hPa NW 2.9mph /  4.7km/h 5mph /  8km/h 84% 0in /  0.0mm 527 W/m2
14:57 54.3 °F /  12.4 °C 49.3 °F /  9.6 °C 29.6in /  1002.4hPa WNW 6.9mph /  11.1km/h 7mph /  11.3km/h 83% 0in /  0.0mm 279 W/m2
15:02 54 °F /  12.2 °C 48.9 °F /  9.4 °C 29.6in /  1002.4hPa SW 4.9mph /  7.9km/h 10mph /  16.1km/h 83% 0in /  0.0mm 334 W/m2
15:07 54.3 °F /  12.4 °C 49.8 °F /  9.9 °C 29.6in /  1002.7hPa WNW 4mph /  6.4km/h 9mph /  14.5km/h 85% 0in /  0.0mm 870 W/m2
15:12 54.7 °F /  12.6 °C 48.9 °F /  9.4 °C 29.6in /  1002.4hPa WNW 10.1mph /  16.3km/h 10mph /  16.1km/h 81% 0in /  0.0mm 777 W/m2
Juneau County Weather
Compliments of Weather Underground - 2 mb